createdAt,value
2018-08-06T00:01:32.195Z,16.80
2018-08-06T00:04:00.948Z,16.80
2018-08-06T00:06:28.716Z,16.90
2018-08-06T00:08:56.665Z,16.90
2018-08-06T00:11:24.648Z,16.80
2018-08-06T00:13:52.594Z,16.80
2018-08-06T00:16:20.458Z,16.70
2018-08-06T00:18:48.335Z,16.60
2018-08-06T00:21:16.275Z,16.60
2018-08-06T00:23:44.136Z,16.60
2018-08-06T00:26:12.026Z,16.50
2018-08-06T00:28:39.960Z,16.40
2018-08-06T00:31:07.814Z,16.30
2018-08-06T00:33:35.712Z,16.30
2018-08-06T00:36:03.555Z,16.30
2018-08-06T00:38:31.479Z,16.30
2018-08-06T00:40:59.371Z,16.30
2018-08-06T00:43:27.239Z,16.20
2018-08-06T00:46:02.907Z,16.20
2018-08-06T00:48:30.795Z,16.20
2018-08-06T00:50:58.647Z,16.20
2018-08-06T00:53:26.389Z,16.10
2018-08-06T00:55:54.112Z,16.10
2018-08-06T00:58:22.056Z,16.00
2018-08-06T01:00:50.041Z,16.00
2018-08-06T01:05:45.669Z,16.00
2018-08-06T01:08:14.499Z,15.80
2018-08-06T01:10:42.391Z,15.80
2018-08-06T01:13:10.458Z,15.70
2018-08-06T01:15:38.451Z,15.60
2018-08-06T01:18:06.552Z,15.50
2018-08-06T01:20:34.393Z,15.50
2018-08-06T01:23:02.391Z,15.40
2018-08-06T01:25:30.447Z,15.40
2018-08-06T01:27:58.312Z,15.50
2018-08-06T01:30:26.224Z,15.60
2018-08-06T01:32:54.074Z,15.50
2018-08-06T01:35:22.941Z,15.50
2018-08-06T01:37:50.914Z,15.40
2018-08-06T01:40:18.730Z,15.30
2018-08-06T01:42:46.614Z,15.30
2018-08-06T01:45:15.717Z,15.30
2018-08-06T01:47:43.723Z,15.10
2018-08-06T01:50:12.755Z,15.10
2018-08-06T01:52:41.384Z,15.00
2018-08-06T01:55:09.223Z,15.00
2018-08-06T01:57:37.061Z,15.00
2018-08-06T02:00:10.478Z,15.00
2018-08-06T02:02:38.743Z,15.10
2018-08-06T02:05:07.370Z,15.00
2018-08-06T02:07:53.496Z,15.10
2018-08-06T02:10:21.314Z,15.00
2018-08-06T02:12:49.174Z,15.00
2018-08-06T02:15:17.056Z,14.90
2018-08-06T02:17:44.945Z,14.90
2018-08-06T02:20:15.677Z,14.90
2018-08-06T02:22:44.234Z,14.90
2018-08-06T02:25:12.156Z,15.00
2018-08-06T02:27:40.629Z,15.00
2018-08-06T02:30:14.333Z,14.90
2018-08-06T02:32:42.524Z,14.90
2018-08-06T02:35:12.471Z,14.90
2018-08-06T02:37:41.121Z,14.80
2018-08-06T02:40:11.384Z,14.70
2018-08-06T02:42:39.392Z,14.60
2018-08-06T02:45:08.160Z,14.60
2018-08-06T02:47:39.007Z,14.60
2018-08-06T02:50:08.239Z,14.70
2018-08-06T02:52:44.399Z,14.70
2018-08-06T02:55:14.286Z,14.70
2018-08-06T02:57:42.186Z,14.70
2018-08-06T03:00:13.253Z,14.60
2018-08-06T03:02:41.976Z,14.50
2018-08-06T03:05:11.949Z,14.50
2018-08-06T03:07:44.719Z,14.40
2018-08-06T03:12:41.090Z,14.40
2018-08-06T03:17:38.322Z,14.40
2018-08-06T03:20:07.077Z,14.30
2018-08-06T03:22:40.756Z,14.30
2018-08-06T03:25:11.010Z,14.30
2018-08-06T03:27:39.110Z,14.30
2018-08-06T03:30:09.601Z,14.40
2018-08-06T03:32:37.476Z,14.40
2018-08-06T03:35:06.601Z,14.40
2018-08-06T03:37:34.671Z,14.20
2018-08-06T03:40:02.577Z,14.10
2018-08-06T03:42:30.478Z,13.90
2018-08-06T03:44:58.317Z,14.00
2018-08-06T03:47:26.272Z,14.10
2018-08-06T03:49:54.182Z,14.10
2018-08-06T03:52:22.103Z,14.10
2018-08-06T03:54:49.940Z,14.00
2018-08-06T03:57:17.811Z,14.00
2018-08-06T03:59:46.268Z,13.90
2018-08-06T04:02:14.228Z,13.90
2018-08-06T04:04:42.041Z,14.00
2018-08-06T04:07:09.937Z,14.10
2018-08-06T04:09:37.875Z,14.20
2018-08-06T04:12:05.708Z,14.20
2018-08-06T04:14:33.692Z,14.10
2018-08-06T04:17:01.536Z,14.00
2018-08-06T04:19:51.646Z,14.00
2018-08-06T04:22:19.661Z,14.00
2018-08-06T04:24:47.424Z,14.10
2018-08-06T04:27:15.285Z,14.10
2018-08-06T04:29:43.222Z,14.20
2018-08-06T04:32:11.114Z,14.20
2018-08-06T04:34:38.848Z,14.20
2018-08-06T04:37:06.676Z,14.20
2018-08-06T04:39:34.575Z,14.20
2018-08-06T04:42:02.541Z,14.10
2018-08-06T04:44:30.273Z,14.20
2018-08-06T04:46:58.107Z,14.20
2018-08-06T04:51:53.651Z,14.20
2018-08-06T04:54:21.565Z,14.20
2018-08-06T04:56:49.421Z,14.20
2018-08-06T04:59:17.237Z,14.20
2018-08-06T05:01:45.057Z,14.40
2018-08-06T05:04:12.961Z,14.50
2018-08-06T05:06:40.863Z,14.70
2018-08-06T05:09:10.893Z,14.70
2018-08-06T05:11:39.268Z,14.60
2018-08-06T05:14:07.174Z,14.60
2018-08-06T05:16:35.176Z,14.70
2018-08-06T05:19:03.091Z,14.80
2018-08-06T05:21:30.959Z,14.90
2018-08-06T05:23:59.439Z,14.90
2018-08-06T05:26:28.314Z,15.00
2018-08-06T05:28:56.362Z,15.10
2018-08-06T05:31:26.009Z,15.20
2018-08-06T05:33:54.355Z,15.20
2018-08-06T05:36:22.658Z,15.30
2018-08-06T05:38:51.753Z,15.40
2018-08-06T05:41:20.465Z,15.40
2018-08-06T05:46:15.999Z,15.30
2018-08-06T05:48:44.062Z,15.30
2018-08-06T05:51:12.061Z,15.40
2018-08-06T05:53:39.980Z,15.50
2018-08-06T05:56:09.279Z,15.50
2018-08-06T05:58:37.739Z,15.70
2018-08-06T06:01:05.788Z,15.70
2018-08-06T06:03:33.697Z,15.80
2018-08-06T06:06:01.598Z,15.80
2018-08-06T06:08:29.514Z,16.00
2018-08-06T06:11:01.153Z,16.00
2018-08-06T06:13:28.926Z,16.10
2018-08-06T06:15:56.882Z,16.30
2018-08-06T06:18:24.783Z,16.40
2018-08-06T06:20:52.936Z,16.50
2018-08-06T06:23:20.784Z,16.70
2018-08-06T06:25:48.792Z,16.70
2018-08-06T06:28:16.551Z,16.70
2018-08-06T06:30:44.319Z,16.80
2018-08-06T06:33:12.297Z,16.90
2018-08-06T06:38:07.810Z,17.30
2018-08-06T06:40:36.015Z,18.30
2018-08-06T06:43:03.874Z,19.50
2018-08-06T06:45:31.726Z,20.50
2018-08-06T06:47:59.652Z,21.60
2018-08-06T06:50:27.515Z,21.90
2018-08-06T06:52:55.516Z,22.50
2018-08-06T06:55:23.372Z,22.90
2018-08-06T06:57:55.451Z,23.20
2018-08-06T07:00:23.489Z,24.10
2018-08-06T07:02:51.945Z,24.50
2018-08-06T07:05:19.947Z,24.80
2018-08-06T07:07:47.910Z,24.70
2018-08-06T07:10:18.401Z,25.00
2018-08-06T07:12:46.614Z,25.20
2018-08-06T07:15:16.214Z,25.50
2018-08-06T07:17:49.016Z,26.00
2018-08-06T07:20:19.659Z,26.30
2018-08-06T07:22:47.538Z,26.30
2018-08-06T07:25:15.981Z,26.40
2018-08-06T07:27:43.825Z,26.10
2018-08-06T07:30:13.889Z,26.00
2018-08-06T07:32:42.534Z,26.30
2018-08-06T07:35:11.614Z,26.60
2018-08-06T07:37:39.734Z,26.70
2018-08-06T07:40:13.016Z,26.80
2018-08-06T07:42:41.011Z,26.80
2018-08-06T07:48:06.461Z,27.00
2018-08-06T07:50:34.244Z,27.10
2018-08-06T07:53:02.044Z,27.30
2018-08-06T07:55:29.900Z,27.40
2018-08-06T07:57:57.711Z,27.60
2018-08-06T08:00:25.621Z,28.00
2018-08-06T08:02:53.466Z,28.20
2018-08-06T08:05:21.456Z,28.00
2018-08-06T08:07:49.381Z,28.10
2018-08-06T08:10:18.749Z,28.20
2018-08-06T08:12:47.323Z,28.10
2018-08-06T08:15:17.374Z,27.90
2018-08-06T08:17:46.126Z,27.70
2018-08-06T08:20:15.177Z,28.00
2018-08-06T08:22:43.063Z,28.00
2018-08-06T08:25:16.823Z,27.50
2018-08-06T08:27:44.739Z,27.60
2018-08-06T08:30:13.835Z,27.50
2018-08-06T08:32:41.685Z,27.50
2018-08-06T08:35:10.298Z,27.20
2018-08-06T08:37:38.207Z,27.70
2018-08-06T08:40:09.389Z,28.00
2018-08-06T08:42:37.527Z,28.30
2018-08-06T08:45:07.734Z,28.30
2018-08-06T08:50:04.054Z,28.50
2018-08-06T08:52:31.924Z,28.70
2018-08-06T08:54:59.639Z,29.10
2018-08-06T08:57:27.440Z,28.90
2018-08-06T08:59:55.326Z,28.80
2018-08-06T09:02:23.155Z,28.90
2018-08-06T09:04:51.613Z,28.70
2018-08-06T09:07:19.604Z,28.90
2018-08-06T09:09:47.469Z,29.10
2018-08-06T09:12:15.358Z,29.20
2018-08-06T09:14:44.208Z,29.40
2018-08-06T09:17:15.517Z,29.50
2018-08-06T09:19:49.458Z,29.50
2018-08-06T09:22:17.349Z,29.30
2018-08-06T09:24:51.855Z,28.70
2018-08-06T09:27:19.592Z,28.70
2018-08-06T09:29:47.449Z,28.20
2018-08-06T09:32:15.272Z,28.30
2018-08-06T09:34:43.221Z,28.20
2018-08-06T09:37:11.138Z,28.20
2018-08-06T09:39:39.113Z,28.20
2018-08-06T09:42:07.105Z,28.30
2018-08-06T09:44:35.571Z,28.30
2018-08-06T09:47:03.639Z,28.40
2018-08-06T09:49:31.665Z,28.40
2018-08-06T09:51:59.611Z,28.40
2018-08-06T09:54:27.744Z,28.40
2018-08-06T09:56:55.774Z,28.60
2018-08-06T09:59:23.725Z,28.60
2018-08-06T10:01:55.700Z,28.70
2018-08-06T10:04:24.107Z,28.60
2018-08-06T10:06:52.368Z,28.60
2018-08-06T10:09:20.251Z,28.20
2018-08-06T10:11:48.266Z,28.20
2018-08-06T10:14:16.078Z,28.20
2018-08-06T10:16:44.378Z,28.20
2018-08-06T10:19:12.432Z,28.20
2018-08-06T10:21:40.308Z,28.40
2018-08-06T10:24:08.359Z,28.40
2018-08-06T10:26:36.602Z,28.60
2018-08-06T10:29:05.495Z,28.70
2018-08-06T10:31:40.514Z,28.50
2018-08-06T10:34:08.934Z,28.20
2018-08-06T10:36:37.264Z,28.20
2018-08-06T10:39:08.553Z,28.20
2018-08-06T10:41:38.075Z,28.00
2018-08-06T10:44:06.516Z,28.20
2018-08-06T10:46:34.867Z,28.40
2018-08-06T10:49:02.964Z,28.50
2018-08-06T10:51:30.861Z,28.80
2018-08-06T10:53:59.347Z,28.90
2018-08-06T10:56:27.723Z,29.00
2018-08-06T10:59:00.346Z,29.20
2018-08-06T11:03:56.304Z,29.50
2018-08-06T11:06:24.468Z,29.30
2018-08-06T11:08:52.636Z,28.90
2018-08-06T11:11:26.520Z,28.50
2018-08-06T11:13:55.126Z,28.30
2018-08-06T11:16:26.175Z,28.30
2018-08-06T11:18:54.114Z,28.30
2018-08-06T11:21:22.100Z,28.70
2018-08-06T11:23:50.075Z,29.00
2018-08-06T11:26:17.988Z,29.20
2018-08-06T11:28:46.037Z,29.40
2018-08-06T11:31:14.197Z,29.30
2018-08-06T11:33:42.318Z,29.60
2018-08-06T11:36:10.355Z,29.60
2018-08-06T11:38:38.349Z,29.60
2018-08-06T11:41:06.756Z,29.70
2018-08-06T11:43:34.821Z,29.60
2018-08-06T11:46:02.891Z,29.40
2018-08-06T11:48:30.944Z,29.50
2018-08-06T11:50:58.767Z,29.70
2018-08-06T11:53:26.857Z,29.70
2018-08-06T11:55:55.206Z,29.90
2018-08-06T11:58:23.204Z,29.90
2018-08-06T12:00:51.256Z,29.80
2018-08-06T12:03:19.321Z,29.60
2018-08-06T12:05:47.477Z,29.60
2018-08-06T12:08:15.611Z,29.70
2018-08-06T12:10:43.522Z,29.80
2018-08-06T12:13:11.534Z,29.90
2018-08-06T12:15:39.709Z,29.90
2018-08-06T12:18:07.900Z,30.00
2018-08-06T12:20:36.679Z,30.00
2018-08-06T12:23:04.957Z,30.20
2018-08-06T12:25:32.921Z,30.20
2018-08-06T12:28:00.965Z,30.30
2018-08-06T12:30:28.832Z,30.30
2018-08-06T12:32:57.109Z,30.30
2018-08-06T12:35:25.187Z,30.40
2018-08-06T12:37:53.078Z,30.60
2018-08-06T12:40:22.019Z,30.70
2018-08-06T12:42:50.064Z,30.70
2018-08-06T12:45:30.140Z,30.90
2018-08-06T12:47:58.197Z,30.90
2018-08-06T12:50:26.497Z,31.00
2018-08-06T12:52:54.573Z,31.00
2018-08-06T12:55:22.575Z,31.00
2018-08-06T12:57:50.358Z,31.00
2018-08-06T13:00:20.773Z,31.10
2018-08-06T13:02:49.834Z,31.20
2018-08-06T13:05:18.592Z,31.30
2018-08-06T13:07:46.606Z,31.40
2018-08-06T13:10:14.995Z,31.50
2018-08-06T13:12:44.677Z,31.30
2018-08-06T13:15:13.659Z,31.40
2018-08-06T13:17:41.608Z,31.60
2018-08-06T13:20:09.673Z,31.60
2018-08-06T13:22:37.977Z,31.70
2018-08-06T13:25:08.909Z,31.80
2018-08-06T13:27:37.546Z,31.80
2018-08-06T13:30:08.510Z,31.80
2018-08-06T13:32:36.812Z,31.90
2018-08-06T13:35:04.952Z,32.00
2018-08-06T13:37:32.962Z,32.10
2018-08-06T13:40:00.882Z,32.10
2018-08-06T13:42:30.128Z,31.90
2018-08-06T13:44:58.141Z,31.90
2018-08-06T13:47:26.282Z,31.90
2018-08-06T13:49:54.215Z,32.00
2018-08-06T13:52:22.129Z,32.10
2018-08-06T13:54:50.226Z,32.10
2018-08-06T13:57:18.250Z,32.10
2018-08-06T13:59:46.634Z,32.00
2018-08-06T14:02:14.698Z,31.70
2018-08-06T14:04:42.857Z,31.70
2018-08-06T14:07:10.847Z,31.70
2018-08-06T14:09:38.851Z,31.60
2018-08-06T14:12:07.415Z,31.60
2018-08-06T14:14:36.103Z,31.50
2018-08-06T14:17:04.516Z,31.50
2018-08-06T14:19:32.482Z,31.70
2018-08-06T14:22:00.580Z,31.70
2018-08-06T14:24:28.478Z,31.80
2018-08-06T14:26:56.480Z,31.90
2018-08-06T14:29:24.262Z,32.00
2018-08-06T14:31:52.451Z,32.10
2018-08-06T14:34:20.438Z,32.10
2018-08-06T14:36:48.323Z,32.10
2018-08-06T14:39:16.171Z,31.90
2018-08-06T14:41:44.240Z,31.90
2018-08-06T14:44:12.234Z,32.10
2018-08-06T14:46:40.389Z,32.20
2018-08-06T14:49:08.858Z,32.30
2018-08-06T14:51:37.318Z,32.30
2018-08-06T14:54:05.724Z,32.50
2018-08-06T14:56:34.178Z,32.50
2018-08-06T14:59:02.301Z,32.50
2018-08-06T15:01:30.274Z,32.60
2018-08-06T15:04:01.532Z,32.50
2018-08-06T15:06:30.444Z,32.60
2018-08-06T15:08:58.409Z,32.50
2018-08-06T15:11:27.415Z,32.40
2018-08-06T15:13:55.270Z,32.50
2018-08-06T15:16:23.201Z,32.40
2018-08-06T15:18:51.495Z,32.50
2018-08-06T15:21:19.484Z,32.50
2018-08-06T15:23:47.346Z,32.50
2018-08-06T15:26:15.349Z,32.50
2018-08-06T15:28:43.173Z,32.40
2018-08-06T15:31:11.108Z,32.40
2018-08-06T15:33:39.526Z,32.40
2018-08-06T15:36:08.526Z,32.50
2018-08-06T15:38:42.203Z,32.50
2018-08-06T15:41:10.668Z,32.40
2018-08-06T15:43:38.887Z,32.40
2018-08-06T15:46:07.206Z,32.50
2018-08-06T15:48:35.800Z,32.40
2018-08-06T15:51:03.779Z,32.50
2018-08-06T15:53:31.885Z,32.30
2018-08-06T15:55:59.770Z,32.30
2018-08-06T15:58:28.171Z,32.20
2018-08-06T16:00:56.260Z,32.20
2018-08-06T16:03:24.369Z,32.20
2018-08-06T16:05:52.265Z,32.20
2018-08-06T16:08:20.134Z,32.10
2018-08-06T16:10:48.032Z,32.10
2018-08-06T16:13:15.763Z,32.10
2018-08-06T16:15:43.588Z,32.20
2018-08-06T16:20:43.792Z,32.10
2018-08-06T16:23:11.690Z,32.00
2018-08-06T16:25:39.638Z,31.90
2018-08-06T16:28:07.562Z,31.80
2018-08-06T16:30:35.555Z,31.40
2018-08-06T16:33:03.442Z,31.40
2018-08-06T16:35:31.340Z,31.30
2018-08-06T16:37:59.158Z,31.40
2018-08-06T16:40:27.093Z,31.40
2018-08-06T16:42:55.051Z,31.30
2018-08-06T16:45:22.929Z,31.20
2018-08-06T16:47:50.857Z,31.20
2018-08-06T16:52:46.811Z,31.10
2018-08-06T16:55:14.741Z,30.90
2018-08-06T16:57:42.667Z,30.80
2018-08-06T17:00:13.832Z,30.80
2018-08-06T17:05:11.058Z,30.70
2018-08-06T17:07:38.867Z,30.60
2018-08-06T17:10:08.993Z,30.60
2018-08-06T17:12:36.948Z,30.50
2018-08-06T17:15:05.665Z,30.50
2018-08-06T17:17:39.851Z,30.30
2018-08-06T17:20:11.861Z,30.30
2018-08-06T17:22:39.840Z,30.10
2018-08-06T17:25:09.259Z,30.00
2018-08-06T17:27:37.547Z,29.90
2018-08-06T17:30:06.944Z,29.90
2018-08-06T17:32:37.531Z,29.80
2018-08-06T17:35:06.672Z,29.70
2018-08-06T17:37:35.410Z,29.60
2018-08-06T17:40:05.357Z,29.50
2018-08-06T17:42:33.722Z,29.50
2018-08-06T17:45:01.878Z,29.30
2018-08-06T17:47:29.914Z,29.30
2018-08-06T17:49:57.966Z,29.20
2018-08-06T17:52:26.141Z,29.20
2018-08-06T17:54:54.152Z,29.00
2018-08-06T17:57:22.606Z,28.80
2018-08-06T17:59:53.925Z,28.80
2018-08-06T18:02:22.236Z,28.70
2018-08-06T18:04:50.174Z,28.60
2018-08-06T18:07:18.176Z,28.50
2018-08-06T18:09:46.025Z,28.40
2018-08-06T18:12:14.111Z,28.30
2018-08-06T18:14:42.127Z,28.20
2018-08-06T18:17:10.273Z,28.10
2018-08-06T18:19:38.276Z,28.00
2018-08-06T18:22:06.780Z,27.90
2018-08-06T18:24:35.718Z,27.80
2018-08-06T18:27:03.778Z,27.60
2018-08-06T18:29:31.922Z,27.50
2018-08-06T18:31:59.817Z,27.40
2018-08-06T18:34:27.881Z,27.30
2018-08-06T18:36:56.079Z,27.20
2018-08-06T18:39:24.274Z,27.10
2018-08-06T18:41:52.117Z,26.90
2018-08-06T18:44:20.002Z,26.80
2018-08-06T18:46:48.713Z,26.70
2018-08-06T18:49:16.949Z,26.60
2018-08-06T18:51:44.895Z,26.60
2018-08-06T18:54:12.893Z,26.40
2018-08-06T18:56:41.038Z,26.40
2018-08-06T18:59:09.494Z,26.20
2018-08-06T19:01:37.958Z,26.20
2018-08-06T19:04:06.238Z,26.10
2018-08-06T19:06:35.152Z,26.00
2018-08-06T19:09:05.098Z,25.90
2018-08-06T19:11:33.253Z,25.80
2018-08-06T19:14:06.863Z,25.70
2018-08-06T19:16:35.142Z,25.60
2018-08-06T19:19:08.977Z,25.50
2018-08-06T19:21:42.052Z,25.40
2018-08-06T19:24:16.216Z,25.40
2018-08-06T19:26:44.173Z,25.30
2018-08-06T19:29:12.252Z,25.20
2018-08-06T19:31:40.199Z,25.10
2018-08-06T19:34:08.964Z,25.10
2018-08-06T19:36:42.480Z,25.00
2018-08-06T19:39:11.008Z,25.00
2018-08-06T19:41:39.205Z,24.80
2018-08-06T19:44:08.126Z,24.80
2018-08-06T19:46:37.702Z,24.80
2018-08-06T19:49:11.277Z,24.70
2018-08-06T19:51:39.690Z,24.70
2018-08-06T19:54:08.400Z,24.50
2018-08-06T19:56:38.019Z,24.50
2018-08-06T19:59:08.896Z,24.50
2018-08-06T20:01:43.563Z,24.40
2018-08-06T20:04:11.643Z,24.40
2018-08-06T20:06:39.766Z,24.30
2018-08-06T20:09:12.029Z,24.30
2018-08-06T20:11:40.434Z,24.20
2018-08-06T20:14:08.806Z,24.10
2018-08-06T20:19:08.856Z,23.90
2018-08-06T20:21:38.355Z,23.80
2018-08-06T20:24:07.278Z,23.70
2018-08-06T20:26:36.349Z,23.60
2018-08-06T20:29:05.490Z,23.50
2018-08-06T20:31:33.937Z,23.40
2018-08-06T20:34:01.977Z,23.30
2018-08-06T20:36:30.046Z,23.20
2018-08-06T20:38:57.966Z,23.10
2018-08-06T20:41:26.184Z,23.00
2018-08-06T20:43:54.090Z,23.00
2018-08-06T20:46:22.054Z,22.80
2018-08-06T20:48:49.927Z,22.70
2018-08-06T20:51:18.412Z,22.60
2018-08-06T20:53:46.824Z,22.50
2018-08-06T20:56:14.869Z,22.40
2018-08-06T20:58:42.905Z,22.20
2018-08-06T21:01:11.165Z,22.10
2018-08-06T21:03:39.543Z,22.00
2018-08-06T21:06:08.419Z,22.00
2018-08-06T21:08:38.536Z,21.90
2018-08-06T21:11:07.669Z,21.70
2018-08-06T21:13:35.624Z,21.80
2018-08-06T21:16:03.537Z,21.70
2018-08-06T21:18:33.205Z,21.60
2018-08-06T21:21:01.056Z,21.60
2018-08-06T21:23:29.190Z,21.50
2018-08-06T21:25:57.098Z,21.40
2018-08-06T21:28:24.918Z,21.30
2018-08-06T21:30:52.778Z,21.20
2018-08-06T21:33:20.626Z,21.10
2018-08-06T21:35:48.494Z,21.00
2018-08-06T21:38:16.478Z,20.90
2018-08-06T21:40:44.309Z,20.90
2018-08-06T21:43:12.259Z,20.80
2018-08-06T21:45:40.163Z,20.80
2018-08-06T21:48:07.979Z,20.90
2018-08-06T21:50:39.147Z,20.90
2018-08-06T21:53:06.970Z,21.10
2018-08-06T21:55:37.055Z,21.20
2018-08-06T21:58:04.909Z,21.30
2018-08-06T22:00:39.009Z,21.40
2018-08-06T22:03:15.114Z,21.40
2018-08-06T22:05:43.217Z,21.30
2018-08-06T22:08:11.075Z,21.20
2018-08-06T22:10:39.112Z,21.10
2018-08-06T22:13:07.544Z,21.10
2018-08-06T22:15:35.962Z,21.00
2018-08-06T22:18:03.994Z,21.10
2018-08-06T22:20:31.748Z,21.10
2018-08-06T22:22:59.681Z,21.00
2018-08-06T22:25:27.502Z,21.00
2018-08-06T22:27:55.303Z,21.00
2018-08-06T22:30:23.137Z,21.00
2018-08-06T22:32:50.969Z,21.20
2018-08-06T22:35:18.935Z,21.20
2018-08-06T22:37:46.889Z,21.20
2018-08-06T22:40:14.792Z,21.30
2018-08-06T22:42:42.604Z,21.30
2018-08-06T22:45:11.571Z,21.30
2018-08-06T22:47:40.220Z,21.30
2018-08-06T22:50:10.006Z,21.40
2018-08-06T22:52:38.138Z,21.30
2018-08-06T22:55:06.775Z,21.40
2018-08-06T22:57:34.723Z,21.40
2018-08-06T23:00:03.026Z,21.40
2018-08-06T23:02:30.898Z,21.30
2018-08-06T23:04:58.861Z,21.40
2018-08-06T23:07:27.009Z,21.30
2018-08-06T23:09:54.879Z,21.30
2018-08-06T23:12:23.821Z,21.30
2018-08-06T23:14:51.722Z,21.30
2018-08-06T23:17:19.512Z,21.30
2018-08-06T23:19:47.232Z,21.20
2018-08-06T23:22:14.935Z,21.20
2018-08-06T23:24:42.811Z,21.20
2018-08-06T23:27:10.646Z,21.20
2018-08-06T23:29:38.542Z,21.20
2018-08-06T23:32:06.337Z,21.20
2018-08-06T23:34:34.116Z,21.20
2018-08-06T23:37:02.135Z,21.20
2018-08-06T23:39:29.929Z,21.20
2018-08-06T23:41:57.760Z,21.20
2018-08-06T23:44:26.010Z,21.20
2018-08-06T23:46:54.022Z,21.30
2018-08-06T23:49:21.947Z,21.30
2018-08-06T23:51:49.776Z,21.20
2018-08-06T23:54:17.685Z,21.20
2018-08-06T23:56:45.673Z,21.30
2018-08-06T23:59:13.592Z,21.20
